Time;durP1;ratioP1;P1;durP2;ratioP2;P2;SDS_P1;SDS_P2;PMS_P1;PMS_P2;Temp;Humidity;BMP_temperature;BMP_pressure;BME280_temperature;BME280_humidity;BME280_pressure;Samples;Min_cycle;Max_cycle;Signal;HPM_P1;HPM_P2
2023/02/08 00:01:44;;;;;;;51.40;21.30;;;;;;;-1.30;76.70;102976.33;106802;1254;22664;-60
2023/02/08 00:04:15;;;;;;;48.30;20.80;;;;;;;-1.30;76.66;102978.27;106691;1267;26706;-60
2023/02/08 00:06:46;;;;;;;51.70;20.50;;;;;;;-1.31;76.69;102982.45;106750;1273;24217;-60
2023/02/08 00:09:17;;;;;;;46.70;20.00;;;;;;;-1.32;76.63;102983.98;106881;1266;23155;-59
2023/02/08 00:11:48;;;;;;;52.90;21.20;;;;;;;-1.33;76.61;102985.98;106904;1262;22590;-61
2023/02/08 00:14:19;;;;;;;53.40;21.10;;;;;;;-1.32;76.77;102988.36;106745;1266;25470;-60
2023/02/08 00:16:50;;;;;;;49.80;21.80;;;;;;;-1.32;77.01;102988.69;106724;1267;25401;-60
2023/02/08 00:19:22;;;;;;;46.50;19.70;;;;;;;-1.31;77.03;102991.67;106913;1272;22581;-59
2023/02/08 00:21:52;;;;;;;50.50;20.70;;;;;;;-1.32;76.84;102986.58;106695;1273;22595;-60
2023/02/08 00:24:23;;;;;;;46.90;17.50;;;;;;;-1.33;76.96;102993.49;106687;1265;25487;-60
2023/02/08 00:26:54;;;;;;;41.30;19.10;;;;;;;-1.33;76.89;103000.79;106727;1273;22659;-61
2023/02/08 00:29:25;;;;;;;40.70;17.30;;;;;;;-1.35;76.61;102999.77;106770;1271;22637;-60
2023/02/08 00:31:57;;;;;;;37.40;14.80;;;;;;;-1.36;76.36;103003.80;106743;1267;22608;-60
2023/02/08 00:34:29;;;;;;;38.80;16.40;;;;;;;-1.39;76.39;103005.46;106767;1273;23148;-59
2023/02/08 00:37:00;;;;;;;33.70;12.30;;;;;;;-1.40;76.43;103006.50;106808;1273;23926;-59
2023/02/08 00:39:31;;;;;;;34.10;11.70;;;;;;;-1.41;76.33;103005.00;106686;1270;24462;-62
2023/02/08 00:42:03;;;;;;;30.60;12.50;;;;;;;-1.42;76.32;103007.64;106851;1268;22680;-58
2023/02/08 00:44:34;;;;;;;33.10;11.90;;;;;;;-1.43;76.23;103014.64;106783;1264;22517;-58
2023/02/08 00:47:05;;;;;;;36.00;12.50;;;;;;;-1.41;76.41;103014.31;106762;1273;22535;-58
2023/02/08 00:49:36;;;;;;;34.00;14.00;;;;;;;-1.40;76.34;103013.59;106822;1263;22611;-60
2023/02/08 00:52:07;;;;;;;39.90;14.70;;;;;;;-1.37;76.35;103008.52;106644;1264;25496;-60
2023/02/08 00:54:39;;;;;;;37.50;15.60;;;;;;;-1.38;76.35;103012.58;106751;1273;25443;-59
2023/02/08 00:57:10;;;;;;;43.30;16.20;;;;;;;-1.40;76.31;103009.38;106781;1267;22521;-60
2023/02/08 00:59:41;;;;;;;47.00;15.90;;;;;;;-1.39;76.38;103008.38;106796;1267;22531;-60
2023/02/08 01:02:12;;;;;;;39.70;15.20;;;;;;;-1.38;76.53;103012.15;106672;1262;22945;-61
2023/02/08 01:04:43;;;;;;;42.10;16.80;;;;;;;-1.39;76.49;103004.91;106838;1269;22663;-59
2023/02/08 01:07:13;;;;;;;34.30;14.10;;;;;;;-1.41;76.43;103005.95;106713;1273;23015;-59
2023/02/08 01:09:45;;;;;;;39.20;16.80;;;;;;;-1.41;76.50;103001.33;106698;1273;22623;-61
2023/02/08 01:12:16;;;;;;;38.90;15.60;;;;;;;-1.42;76.62;103000.12;106681;1268;25614;-58
2023/02/08 01:14:47;;;;;;;41.80;14.90;;;;;;;-1.41;76.61;103000.86;106734;1267;22778;-58
2023/02/08 01:17:18;;;;;;;32.80;13.10;;;;;;;-1.41;76.48;102997.48;106847;1263;22572;-60
2023/02/08 01:19:49;;;;;;;35.10;12.10;;;;;;;-1.43;76.54;102999.08;106811;1264;22530;-59
2023/02/08 01:22:20;;;;;;;31.00;13.10;;;;;;;-1.42;76.74;102997.52;106798;1273;22871;-57
2023/02/08 01:24:51;;;;;;;30.30;9.80;;;;;;;-1.43;76.50;102999.52;106784;1266;24217;-61
2023/02/08 01:27:22;;;;;;;29.00;10.00;;;;;;;-1.44;76.30;103000.73;106819;1273;22574;-59
2023/02/08 01:29:53;;;;;;;29.50;10.00;;;;;;;-1.46;76.47;102997.86;106806;1272;22655;-59
2023/02/08 01:32:23;;;;;;;29.00;10.40;;;;;;;-1.44;76.63;102994.01;106870;1273;22531;-59
2023/02/08 01:34:54;;;;;;;29.50;12.00;;;;;;;-1.43;76.59;102990.92;106815;1258;23067;-60
2023/02/08 01:37:25;;;;;;;28.20;9.90;;;;;;;-1.44;76.43;102984.92;106821;1258;22639;-60
2023/02/08 01:39:56;;;;;;;27.60;9.80;;;;;;;-1.45;76.31;102979.55;106797;1256;24083;-59
2023/02/08 01:42:27;;;;;;;28.40;8.90;;;;;;;-1.47;76.29;102984.98;106789;1257;22582;-61
2023/02/08 01:45:23;;;;;;;29.20;10.20;;;;;;;-1.46;76.31;102981.30;106914;1272;25601;-60
2023/02/08 01:48:03;;;;;;;35.00;10.80;;;;;;;-1.46;76.49;102983.69;106761;1273;25458;-60
2023/02/08 01:50:40;;;;;;;31.40;11.20;;;;;;;-1.46;76.36;102981.71;106600;1279;26497;-60
2023/02/08 01:53:11;;;;;;;32.30;10.20;;;;;;;-1.45;76.53;102986.77;106587;1276;22516;-60
2023/02/08 01:55:47;;;;;;;31.50;10.20;;;;;;;-1.44;76.59;102988.70;106723;1260;22521;-60
2023/02/08 01:58:20;;;;;;;26.40;8.50;;;;;;;-1.44;76.50;102979.84;106663;1267;26612;-60
2023/02/08 02:00:51;;;;;;;30.50;10.60;;;;;;;-1.44;76.32;102982.31;106431;1279;25482;-60
2023/02/08 02:03:23;;;;;;;24.70;8.70;;;;;;;-1.45;76.51;102975.78;106126;1264;22580;-61
2023/02/08 02:06:01;;;;;;;28.10;10.10;;;;;;;-1.45;76.60;102976.52;106311;1265;25498;-59
2023/02/08 02:08:32;;;;;;;26.70;10.00;;;;;;;-1.43;76.45;102977.92;106426;1279;25554;-60
2023/02/08 02:11:03;;;;;;;31.40;11.10;;;;;;;-1.41;76.58;102974.40;106617;1279;22607;-59
2023/02/08 02:13:37;;;;;;;34.30;11.40;;;;;;;-1.39;76.42;102973.00;106509;1279;24307;-59
2023/02/08 02:16:08;;;;;;;28.80;10.10;;;;;;;-1.39;76.43;102968.36;106145;1272;22675;-59
2023/02/08 02:18:40;;;;;;;26.90;9.80;;;;;;;-1.39;76.46;102965.00;106372;1269;24238;-60
2023/02/08 02:21:35;;;;;;;25.90;8.70;;;;;;;-1.39;76.27;102962.04;106334;1277;22887;-61
2023/02/08 02:24:38;;;;;;;24.80;8.20;;;;;;;-1.39;76.18;102959.67;106414;1279;24105;-58
2023/02/08 02:27:29;;;;;;;21.70;8.00;;;;;;;-1.38;76.31;102963.88;106896;1266;22531;-59
2023/02/08 02:30:41;;;;;;;24.30;8.50;;;;;;;-1.37;76.20;102960.84;107141;1268;25484;-60
2023/02/08 02:33:37;;;;;;;22.70;7.00;;;;;;;-1.38;76.04;102960.42;106597;1273;22580;-60
2023/02/08 02:36:19;;;;;;;23.20;8.00;;;;;;;-1.39;76.18;102959.46;106697;1273;24335;-60
2023/02/08 02:39:02;;;;;;;24.40;7.70;;;;;;;-1.40;76.16;102955.55;106816;1273;25311;-60
2023/02/08 02:44:40;;;;;;;25.60;8.30;;;;;;;-1.39;76.28;102955.60;106697;1260;24361;-60
2023/02/08 02:47:19;;;;;;;30.00;10.10;;;;;;;-1.41;76.18;102957.25;106785;1273;23021;-59
2023/02/08 02:49:54;;;;;;;29.20;9.40;;;;;;;-1.40;76.28;102961.11;106694;1267;22530;-57
2023/02/08 02:52:33;;;;;;;29.20;9.30;;;;;;;-1.40;76.34;102959.14;106867;1267;22525;-60
2023/02/08 02:55:09;;;;;;;33.10;9.70;;;;;;;-1.39;76.31;102964.91;106689;1273;25350;-60
2023/02/08 02:57:42;;;;;;;30.50;10.20;;;;;;;-1.41;75.96;102963.05;106832;1273;22531;-62
2023/02/08 03:00:25;;;;;;;27.20;8.90;;;;;;;-1.43;76.07;102961.42;106828;1270;24188;-60
2023/02/08 03:02:57;;;;;;;27.10;9.80;;;;;;;-1.41;76.15;102960.61;106762;1257;22623;-60
2023/02/08 03:05:30;;;;;;;29.10;10.90;;;;;;;-1.41;76.09;102961.54;106840;1267;25456;-58
2023/02/08 03:08:17;;;;;;;29.10;10.30;;;;;;;-1.41;76.09;102961.31;106619;1273;25436;-59
2023/02/08 03:11:11;;;;;;;29.80;10.10;;;;;;;-1.41;76.01;102958.64;106814;1273;22609;-62
2023/02/08 03:14:04;;;;;;;29.60;10.10;;;;;;;-1.41;75.97;102957.73;106717;1258;22994;-60
2023/02/08 03:16:49;;;;;;;27.70;9.20;;;;;;;-1.42;76.07;102957.38;106125;1278;25372;-59
2023/02/08 03:19:27;;;;;;;29.30;10.20;;;;;;;-1.42;76.01;102955.47;106326;1264;22537;-59
2023/02/08 03:22:01;;;;;;;29.80;9.60;;;;;;;-1.42;75.91;102958.45;106410;1279;23022;-61
2023/02/08 03:24:39;;;;;;;28.60;10.10;;;;;;;-1.43;75.92;102965.32;106524;1267;22541;-58
2023/02/08 03:27:16;;;;;;;32.40;10.40;;;;;;;-1.43;76.02;102964.39;106257;1264;22553;-60
2023/02/08 03:29:55;;;;;;;28.10;10.40;;;;;;;-1.45;76.08;102970.81;106227;1273;23166;-60
2023/02/08 03:32:32;;;;;;;29.80;9.90;;;;;;;-1.44;76.11;102970.58;106287;1273;25490;-61
2023/02/08 03:35:09;;;;;;;28.50;10.50;;;;;;;-1.43;76.14;102970.44;106306;1279;22545;-60
2023/02/08 03:37:45;;;;;;;31.60;11.80;;;;;;;-1.43;76.11;102968.36;106215;1271;22711;-62
2023/02/08 03:40:22;;;;;;;32.30;10.80;;;;;;;-1.44;76.05;102972.39;106184;1277;22576;-61
2023/02/08 03:42:58;;;;;;;29.00;10.20;;;;;;;-1.44;76.12;102972.48;106437;1269;22592;-60
2023/02/08 03:45:33;;;;;;;35.80;11.80;;;;;;;-1.43;76.17;102983.47;106602;1267;24206;-62
2023/02/08 03:48:08;;;;;;;27.80;10.10;;;;;;;-1.41;76.19;102986.59;106303;1279;22544;-59
2023/02/08 03:50:44;;;;;;;32.70;12.70;;;;;;;-1.42;76.22;102991.11;106279;1279;22573;-59
2023/02/08 03:53:19;;;;;;;32.40;11.60;;;;;;;-1.42;76.25;102994.08;106386;1275;22593;-62
2023/02/08 03:55:56;;;;;;;31.00;11.20;;;;;;;-1.42;76.36;102993.75;106725;1261;22722;-60
2023/02/08 03:58:32;;;;;;;28.30;11.00;;;;;;;-1.42;76.31;102993.01;106707;1267;22524;-60
2023/02/08 04:01:12;;;;;;;34.00;11.50;;;;;;;-1.42;76.36;102992.98;106633;1267;22774;-61
2023/02/08 04:03:47;;;;;;;36.50;11.50;;;;;;;-1.42;76.41;102989.88;106695;1267;24215;-60
2023/02/08 04:06:18;;;;;;;31.30;10.60;;;;;;;-1.40;76.33;102994.09;106747;1267;25484;-61
2023/02/08 04:08:49;;;;;;;32.30;12.50;;;;;;;-1.39;76.27;103000.69;106699;1265;24221;-60
2023/02/08 04:11:20;;;;;;;33.30;11.80;;;;;;;-1.40;76.33;103002.63;106789;1259;22537;-60
2023/02/08 04:13:51;;;;;;;36.40;12.10;;;;;;;-1.40;76.27;103003.73;106626;1270;23024;-59
2023/02/08 04:16:22;;;;;;;30.60;10.40;;;;;;;-1.39;76.57;103008.38;106724;1257;25371;-60
2023/02/08 04:18:53;;;;;;;34.20;12.60;;;;;;;-1.38;76.56;103002.69;106707;1273;25450;-59
2023/02/08 04:21:24;;;;;;;38.60;13.80;;;;;;;-1.38;76.66;103003.23;106622;1267;24250;-60
2023/02/08 04:23:55;;;;;;;32.50;14.00;;;;;;;-1.38;76.74;102999.23;106637;1273;22541;-60
2023/02/08 04:26:26;;;;;;;35.70;13.00;;;;;;;-1.38;76.73;103003.77;106669;1253;23148;-60
2023/02/08 04:28:57;;;;;;;44.10;16.00;;;;;;;-1.39;76.70;103003.98;106743;1257;22579;-61
2023/02/08 04:31:28;;;;;;;47.10;17.30;;;;;;;-1.40;76.95;103001.75;106389;1257;250050;-60
2023/02/08 04:33:59;;;;;;;43.50;15.80;;;;;;;-1.40;77.01;103003.08;106698;1273;23025;-61
2023/02/08 04:36:30;;;;;;;56.50;19.30;;;;;;;-1.41;77.12;102999.77;106678;1273;22529;-60
2023/02/08 04:39:01;;;;;;;57.10;19.90;;;;;;;-1.42;77.07;102996.67;106625;1273;26818;-60
2023/02/08 04:41:32;;;;;;;50.60;18.20;;;;;;;-1.42;77.11;103001.05;106682;1271;22656;-60
2023/02/08 04:44:03;;;;;;;47.90;16.70;;;;;;;-1.42;77.16;102997.36;106634;1270;23029;-60
2023/02/08 04:46:34;;;;;;;41.70;16.30;;;;;;;-1.42;77.19;103000.13;106627;1266;25388;-59
2023/02/08 04:49:05;;;;;;;48.20;18.30;;;;;;;-1.42;77.12;102997.91;106708;1273;22568;-60
2023/02/08 04:51:37;;;;;;;53.80;20.40;;;;;;;-1.42;77.30;103008.18;106727;1273;25482;-60
2023/02/08 04:54:08;;;;;;;68.00;24.40;;;;;;;-1.41;77.20;103002.73;106657;1260;22765;-59
2023/02/08 04:56:39;;;;;;;64.80;22.20;;;;;;;-1.41;77.24;103002.51;106702;1265;22579;-60
2023/02/08 04:59:11;;;;;;;64.50;23.50;;;;;;;-1.41;77.17;103004.86;106662;1266;25527;-59
2023/02/08 05:01:42;;;;;;;62.70;23.40;;;;;;;-1.42;77.20;103003.42;106646;1257;23093;-59
2023/02/08 05:04:13;;;;;;;54.70;21.90;;;;;;;-1.41;77.29;102987.30;106730;1251;22551;-58
2023/02/08 05:06:44;;;;;;;54.70;20.90;;;;;;;-1.45;77.15;102975.73;106612;1267;22573;-59
2023/02/08 05:09:15;;;;;;;45.30;17.40;;;;;;;-1.51;76.99;102968.83;106691;1259;24372;-59
2023/02/08 05:11:46;;;;;;;46.10;18.60;;;;;;;-1.56;76.91;102971.45;106667;1270;24135;-60
2023/02/08 05:14:17;;;;;;;45.70;18.30;;;;;;;-1.57;77.29;102972.49;106642;1271;22561;-60
2023/02/08 05:16:48;;;;;;;43.70;18.20;;;;;;;-1.58;77.13;102973.47;106767;1263;23925;-60
2023/02/08 05:19:19;;;;;;;48.40;18.00;;;;;;;-1.60;77.36;102972.83;107112;1257;22536;-60
2023/02/08 05:21:50;;;;;;;46.30;16.60;;;;;;;-1.60;77.49;102976.13;106780;1273;25440;-59
2023/02/08 05:24:21;;;;;;;43.50;16.20;;;;;;;-1.61;77.57;102978.38;106738;1270;25510;-60
2023/02/08 05:26:52;;;;;;;43.40;16.50;;;;;;;-1.63;77.60;102980.16;106797;1270;22544;-60
2023/02/08 05:29:23;;;;;;;50.80;20.90;;;;;;;-1.67;77.32;102983.30;106710;1268;22533;-60
2023/02/08 05:31:55;;;;;;;45.00;21.00;;;;;;;-1.72;77.08;102983.95;106746;1270;24240;-60
2023/02/08 05:34:26;;;;;;;50.50;21.70;;;;;;;-1.79;77.13;102987.13;108837;1265;22521;-60
2023/02/08 05:36:57;;;;;;;51.80;22.20;;;;;;;-1.84;77.16;102993.91;106750;1267;23976;-59
2023/02/08 05:39:28;;;;;;;50.00;21.20;;;;;;;-1.87;77.54;102999.85;106781;1270;25409;-60
2023/02/08 05:41:59;;;;;;;54.40;23.50;;;;;;;-1.87;77.37;103000.76;106869;1270;22947;-60
2023/02/08 05:44:30;;;;;;;47.50;20.30;;;;;;;-1.95;77.00;102996.60;106609;1273;22657;-59
2023/02/08 05:47:02;;;;;;;47.30;20.80;;;;;;;-2.03;77.25;103001.74;106677;1256;22554;-59
2023/02/08 05:49:33;;;;;;;50.30;21.80;;;;;;;-2.06;77.47;103009.58;106740;1254;26553;-59
2023/02/08 05:52:05;;;;;;;46.00;18.50;;;;;;;-2.08;77.58;103010.76;106792;1273;22686;-59
2023/02/08 05:54:36;;;;;;;51.10;19.00;;;;;;;-2.09;77.62;103008.83;106894;1273;26524;-60
2023/02/08 05:57:07;;;;;;;54.30;22.70;;;;;;;-2.11;77.37;103010.08;106732;1265;25475;-59
2023/02/08 05:59:38;;;;;;;48.70;18.70;;;;;;;-2.17;77.15;103009.09;106703;1250;23067;-59
2023/02/08 06:02:09;;;;;;;55.50;21.10;;;;;;;-2.24;77.40;103009.88;106828;1270;22514;-60
2023/02/08 06:04:40;;;;;;;50.40;19.70;;;;;;;-2.29;77.23;103011.79;106729;1272;22553;-60
2023/02/08 06:07:11;;;;;;;53.00;20.40;;;;;;;-2.33;77.43;103012.32;106589;1266;22580;-60
2023/02/08 06:09:43;;;;;;;55.00;20.40;;;;;;;-2.37;77.32;103005.73;106571;1267;22573;-60
2023/02/08 06:12:14;;;;;;;65.40;23.70;;;;;;;-2.43;77.22;103005.86;106993;1257;22562;-59
2023/02/08 06:14:46;;;;;;;69.20;22.40;;;;;;;-2.48;77.26;103005.64;108854;1267;22528;-60
2023/02/08 06:17:17;;;;;;;68.10;22.40;;;;;;;-2.51;77.16;103005.85;106873;1273;22561;-60
2023/02/08 06:19:48;;;;;;;69.70;24.30;;;;;;;-2.56;77.36;103007.48;106900;1267;23956;-59
2023/02/08 06:22:19;;;;;;;68.00;26.00;;;;;;;-2.59;77.57;103003.91;106502;1273;22554;-59
2023/02/08 06:24:50;;;;;;;73.80;27.30;;;;;;;-2.60;77.60;103002.92;106642;1273;23166;-59
2023/02/08 06:27:21;;;;;;;70.70;25.20;;;;;;;-2.64;77.34;103006.65;106589;1251;24263;-58
2023/02/08 06:29:52;;;;;;;68.80;26.60;;;;;;;-2.70;77.45;103008.95;106718;1271;22682;-60
2023/02/08 06:32:24;;;;;;;69.70;24.90;;;;;;;-2.73;77.81;103016.46;106764;1273;22566;-60
2023/02/08 06:34:56;;;;;;;69.80;23.90;;;;;;;-2.74;77.70;103016.02;106681;1273;22694;-60
2023/02/08 06:37:27;;;;;;;62.00;22.20;;;;;;;-2.78;77.58;103019.45;106929;1257;22568;-60
2023/02/08 06:39:59;;;;;;;60.00;22.20;;;;;;;-2.83;77.59;103021.40;106931;1273;22572;-57
2023/02/08 06:42:30;;;;;;;60.20;21.70;;;;;;;-2.87;77.81;103021.21;106886;1251;24200;-59
2023/02/08 06:45:01;;;;;;;64.60;23.70;;;;;;;-2.87;78.06;103020.19;106955;1257;25507;-60
2023/02/08 06:47:32;;;;;;;84.70;32.30;;;;;;;-2.87;78.25;103021.98;106816;1259;24357;-58
2023/02/08 06:50:03;;;;;;;102.20;40.00;;;;;;;-2.86;78.34;103027.91;106704;1257;22611;-60
2023/02/08 06:52:35;;;;;;;100.10;41.00;;;;;;;-2.86;78.41;103034.07;106817;1270;22758;-59
2023/02/08 06:55:07;;;;;;;112.30;41.70;;;;;;;-2.88;78.40;103032.41;106755;1273;22708;-59
2023/02/08 06:57:38;;;;;;;126.10;50.90;;;;;;;-2.90;78.48;103031.52;106904;1266;25570;-60
2023/02/08 07:00:11;;;;;;;121.10;50.70;;;;;;;-2.90;78.66;103038.56;106651;1257;22635;-58
2023/02/08 07:02:43;;;;;;;152.60;65.10;;;;;;;-2.89;78.88;103048.70;106824;1267;22566;-59
2023/02/08 07:05:14;;;;;;;143.40;62.30;;;;;;;-2.90;78.89;103049.21;106966;1258;26848;-58
2023/02/08 07:07:47;;;;;;;218.00;86.00;;;;;;;-2.89;79.07;103062.41;106781;1270;22573;-60
2023/02/08 07:10:18;;;;;;;147.10;57.50;;;;;;;-2.91;79.08;103062.20;106821;1266;22572;-59
2023/02/08 07:12:49;;;;;;;105.60;38.90;;;;;;;-2.92;79.24;103061.14;106946;1264;22578;-60
2023/02/08 07:15:21;;;;;;;104.90;43.00;;;;;;;-2.92;79.39;103061.20;106762;1273;22626;-60
2023/02/08 07:17:52;;;;;;;115.90;47.60;;;;;;;-2.89;79.61;103063.67;106865;1259;22599;-60
2023/02/08 07:20:23;;;;;;;115.70;50.60;;;;;;;-2.87;79.64;103059.79;106777;1259;22579;-60
2023/02/08 07:22:55;;;;;;;122.40;52.60;;;;;;;-2.85;79.79;103066.11;106717;1251;24350;-60
2023/02/08 07:25:26;;;;;;;141.10;59.30;;;;;;;-2.83;80.01;103063.10;106811;1266;22591;-60
2023/02/08 07:27:57;;;;;;;187.70;99.90;;;;;;;-2.82;80.12;103067.77;106703;1263;22558;-60
2023/02/08 07:30:28;;;;;;;214.80;139.30;;;;;;;-2.77;80.33;103073.17;106764;1267;24038;-59
2023/02/08 07:33:00;;;;;;;161.20;91.50;;;;;;;-2.72;80.52;103073.30;106839;1258;22831;-59
2023/02/08 07:35:31;;;;;;;155.00;72.30;;;;;;;-2.67;80.69;103078.55;106864;1259;22575;-60
2023/02/08 07:38:02;;;;;;;126.20;52.80;;;;;;;-2.62;80.68;103076.98;106612;1259;22579;-60
2023/02/08 07:40:33;;;;;;;107.70;38.60;;;;;;;-2.56;80.98;103078.88;106701;1259;24467;-60
2023/02/08 07:43:04;;;;;;;109.70;40.10;;;;;;;-2.51;80.94;103080.20;106857;1267;22629;-60
2023/02/08 07:45:37;;;;;;;121.50;46.40;;;;;;;-2.45;81.14;103087.45;106774;1273;24520;-58
2023/02/08 07:48:08;;;;;;;104.40;40.50;;;;;;;-2.39;81.18;103089.60;106831;1270;25479;-60
2023/02/08 07:50:39;;;;;;;93.20;38.20;;;;;;;-2.33;81.17;103091.05;106783;1273;22671;-60
2023/02/08 07:53:10;;;;;;;108.10;38.10;;;;;;;-2.27;81.28;103093.58;106740;1266;24323;-60
2023/02/08 07:55:41;;;;;;;101.10;39.50;;;;;;;-2.21;81.35;103094.31;106643;1269;23161;-62
2023/02/08 07:58:13;;;;;;;106.90;40.80;;;;;;;-2.15;81.47;103096.05;106660;1266;22715;-60
2023/02/08 08:00:44;;;;;;;101.20;41.50;;;;;;;-2.08;81.47;103098.33;106858;1273;23022;-58
2023/02/08 08:03:15;;;;;;;90.70;38.50;;;;;;;-2.01;81.40;103098.32;106627;1260;22570;-59
2023/02/08 08:05:46;;;;;;;103.30;43.00;;;;;;;-1.96;81.34;103103.17;106573;1270;24243;-60
2023/02/08 08:08:17;;;;;;;108.60;47.40;;;;;;;-1.91;81.50;103103.95;106626;1270;24267;-59
2023/02/08 08:10:49;;;;;;;105.20;47.40;;;;;;;-1.85;81.53;103107.18;106761;1265;22614;-59
2023/02/08 08:13:20;;;;;;;108.00;44.30;;;;;;;-1.78;81.40;103106.46;106887;1266;22673;-60
2023/02/08 08:15:51;;;;;;;108.30;44.90;;;;;;;-1.73;81.36;103106.45;106875;1273;24365;-59
2023/02/08 08:18:22;;;;;;;106.80;41.60;;;;;;;-1.68;81.38;103106.17;106784;1257;22641;-60
2023/02/08 08:20:53;;;;;;;97.00;38.90;;;;;;;-1.62;81.41;103103.90;106817;1273;24193;-59
2023/02/08 08:23:25;;;;;;;95.60;36.90;;;;;;;-1.58;81.54;103106.54;106708;1273;23050;-59
2023/02/08 08:25:56;;;;;;;85.60;34.30;;;;;;;-1.53;81.48;103106.02;106661;1262;24401;-60
2023/02/08 08:28:28;;;;;;;90.10;35.00;;;;;;;-1.48;81.55;103106.39;106770;1264;23084;-60
2023/02/08 08:30:59;;;;;;;82.70;35.80;;;;;;;-1.42;81.59;103100.61;106844;1270;24728;-60
2023/02/08 08:33:30;;;;;;;80.80;33.70;;;;;;;-1.36;81.61;103100.74;106738;1268;22685;-58
2023/02/08 08:36:01;;;;;;;77.20;33.10;;;;;;;-1.31;81.57;103097.17;106799;1269;26903;-59
2023/02/08 08:38:32;;;;;;;72.90;31.00;;;;;;;-1.26;81.56;103097.60;106704;1273;22530;-59
2023/02/08 08:41:06;;;;;;;77.50;31.40;;;;;;;-1.21;81.56;103100.10;106808;1273;23421;-60
2023/02/08 08:43:37;;;;;;;73.50;29.10;;;;;;;-1.16;81.50;103097.61;106799;1273;22550;-60
2023/02/08 08:46:09;;;;;;;75.70;31.20;;;;;;;-1.12;81.38;103094.53;106803;1257;25299;-58
2023/02/08 08:48:40;;;;;;;72.80;28.70;;;;;;;-1.07;81.36;103091.11;106755;1273;22545;-61
2023/02/08 08:51:11;;;;;;;74.60;32.70;;;;;;;-1.03;81.26;103093.06;106725;1265;22688;-57
2023/02/08 08:53:42;;;;;;;75.80;30.10;;;;;;;-1.00;81.26;103085.75;106762;1273;22627;-60
2023/02/08 08:56:13;;;;;;;68.50;28.60;;;;;;;-0.96;81.31;103085.34;106813;1259;25569;-58
2023/02/08 08:58:44;;;;;;;69.40;29.60;;;;;;;-0.91;81.23;103090.64;107085;1252;24361;-57
2023/02/08 09:01:16;;;;;;;67.90;28.50;;;;;;;-0.89;81.19;103093.02;106695;1266;22632;-60
2023/02/08 09:03:47;;;;;;;69.20;27.10;;;;;;;-0.83;81.44;103090.73;106682;1273;24284;-60
2023/02/08 09:06:18;;;;;;;76.80;31.30;;;;;;;-0.78;81.38;103093.58;106816;1266;25492;-58
2023/02/08 09:08:49;;;;;;;75.20;32.20;;;;;;;-0.73;81.38;103097.23;106743;1262;23147;-58
2023/02/08 09:11:21;;;;;;;63.70;28.00;;;;;;;-0.69;81.23;103097.63;106665;1259;23145;-60
2023/02/08 09:13:54;;;;;;;78.40;31.80;;;;;;;-0.66;81.28;103093.73;106691;1271;22703;-59
2023/02/08 09:16:26;;;;;;;78.50;31.20;;;;;;;-0.61;81.42;103091.66;106704;1266;22529;-60
2023/02/08 09:19:00;;;;;;;74.20;30.40;;;;;;;-0.55;81.34;103089.06;106796;1273;25443;-59
2023/02/08 09:21:31;;;;;;;76.20;30.50;;;;;;;-0.50;81.19;103090.26;106899;1272;22527;-61
2023/02/08 09:24:04;;;;;;;70.30;30.80;;;;;;;-0.46;81.30;103096.64;106766;1272;22528;-59
2023/02/08 09:26:35;;;;;;;73.50;30.60;;;;;;;-0.41;81.23;103100.67;106813;1255;22593;-59
2023/02/08 09:29:06;;;;;;;64.70;25.90;;;;;;;-0.34;81.32;103105.84;106686;1270;26838;-59
2023/02/08 09:31:38;;;;;;;63.10;26.20;;;;;;;-0.31;81.05;103102.13;106654;1272;22602;-59
2023/02/08 09:34:09;;;;;;;62.20;27.10;;;;;;;-0.27;81.14;103099.52;106852;1259;22544;-60
2023/02/08 09:36:42;;;;;;;59.00;24.50;;;;;;;-0.24;80.98;103101.30;106662;1273;22547;-60
2023/02/08 09:39:16;;;;;;;59.00;25.50;;;;;;;-0.19;80.87;103106.55;106701;1258;22534;-60
2023/02/08 09:42:12;;;;;;;61.80;25.10;;;;;;;-0.17;80.85;103107.66;106728;1257;22527;-59
2023/02/08 09:45:00;;;;;;;60.00;24.50;;;;;;;-0.14;81.01;103109.73;106763;1273;22564;-60
2023/02/08 09:47:34;;;;;;;60.70;24.80;;;;;;;-0.12;80.79;103107.05;106619;1259;22585;-60
2023/02/08 09:50:13;;;;;;;54.40;23.30;;;;;;;-0.10;80.79;103102.59;106645;1265;22525;-59
2023/02/08 09:52:50;;;;;;;54.50;21.90;;;;;;;-0.07;80.76;103105.67;106674;1270;24368;-60
2023/02/08 09:55:30;;;;;;;56.50;23.70;;;;;;;-0.05;80.73;103096.40;106741;1259;24220;-58
2023/02/08 09:58:04;;;;;;;56.20;21.30;;;;;;;-0.07;80.48;103094.33;106651;1273;22530;-60
2023/02/08 10:00:40;;;;;;;53.20;22.50;;;;;;;-0.06;80.55;103092.86;106786;1266;22726;-60
2023/02/08 10:03:25;;;;;;;59.30;22.40;;;;;;;-0.03;80.48;103095.83;106652;1273;22554;-61
2023/02/08 10:05:56;;;;;;;69.10;25.20;;;;;;;-0.01;80.52;103095.36;106681;1265;24963;-59
2023/02/08 10:08:29;;;;;;;55.40;22.00;;;;;;;0.01;80.48;103091.38;106904;1265;24237;-60
2023/02/08 10:11:14;;;;;;;53.90;22.80;;;;;;;0.05;80.63;103089.46;106820;1265;24266;-60
2023/02/08 10:14:09;;;;;;;55.40;21.10;;;;;;;0.07;80.36;103090.77;106667;1258;22628;-61
2023/02/08 10:16:55;;;;;;;58.60;21.80;;;;;;;0.06;80.41;103090.30;106857;1270;22582;-59
2023/02/08 10:19:45;;;;;;;47.70;20.60;;;;;;;0.08;80.42;103088.41;106872;1266;22545;-60
2023/02/08 10:22:30;;;;;;;58.40;22.00;;;;;;;0.08;80.32;103086.77;106702;1257;22580;-60
2023/02/08 10:25:27;;;;;;;61.00;22.20;;;;;;;0.09;80.44;103081.45;106785;1273;24351;-60
2023/02/08 10:28:15;;;;;;;60.70;24.40;;;;;;;0.12;80.66;103074.17;106813;1274;22543;-59
2023/02/08 10:30:54;;;;;;;65.70;25.50;;;;;;;0.16;80.51;103077.29;106976;1273;22852;-60
2023/02/08 10:33:32;;;;;;;62.10;24.70;;;;;;;0.19;80.43;103073.23;106710;1270;24205;-59
2023/02/08 10:36:12;;;;;;;66.60;25.90;;;;;;;0.22;80.67;103075.62;106839;1270;22657;-59
2023/02/08 10:38:43;;;;;;;62.60;25.80;;;;;;;0.25;80.53;103072.52;106712;1270;24260;-59
2023/02/08 10:41:20;;;;;;;55.80;21.10;;;;;;;0.28;80.54;103070.89;106676;1268;22539;-59
2023/02/08 10:43:59;;;;;;;51.00;21.30;;;;;;;0.28;80.41;103064.90;106802;1270;23418;-60
2023/02/08 10:46:36;;;;;;;62.00;24.60;;;;;;;0.28;80.27;103066.71;106609;1257;24194;-59
2023/02/08 10:49:12;;;;;;;59.60;25.40;;;;;;;0.31;80.69;103060.08;106728;1257;22589;-60
2023/02/08 10:51:45;;;;;;;61.50;24.40;;;;;;;0.38;80.74;103061.01;106936;1273;24330;-58
2023/02/08 10:54:17;;;;;;;53.20;23.80;;;;;;;0.42;80.72;103056.84;106817;1264;24243;-59
2023/02/08 10:56:52;;;;;;;54.00;23.40;;;;;;;0.47;80.57;103057.02;106805;1265;22574;-58
2023/02/08 10:59:27;;;;;;;53.60;22.50;;;;;;;0.52;80.57;103064.55;106681;1270;22534;-60
2023/02/08 11:01:59;;;;;;;56.60;24.40;;;;;;;0.55;80.44;103068.52;106537;1259;22518;-60
2023/02/08 11:04:30;;;;;;;57.80;23.00;;;;;;;0.56;80.44;103063.36;106883;1273;22537;-59
2023/02/08 11:07:21;;;;;;;65.70;27.30;;;;;;;0.59;80.38;103060.09;106668;1262;22669;-60
2023/02/08 11:09:52;;;;;;;63.20;26.90;;;;;;;0.62;80.33;103055.77;106826;1274;23852;-58
2023/02/08 11:12:24;;;;;;;62.40;25.30;;;;;;;0.63;80.38;103058.26;106794;1273;23962;-59
2023/02/08 11:14:56;;;;;;;59.30;26.10;;;;;;;0.68;80.58;103054.33;106797;1263;25558;-58
2023/02/08 11:17:32;;;;;;;62.90;26.60;;;;;;;0.72;80.44;103048.34;106730;1273;22527;-60
2023/02/08 11:20:04;;;;;;;66.80;27.60;;;;;;;0.75;80.46;103043.35;106783;1273;22535;-59
2023/02/08 11:22:35;;;;;;;56.20;24.30;;;;;;;0.81;80.34;103038.89;106934;1265;22644;-57
2023/02/08 11:25:14;;;;;;;59.80;27.40;;;;;;;0.83;80.34;103036.66;106714;1267;22647;-59
2023/02/08 11:27:49;;;;;;;57.90;23.10;;;;;;;0.89;80.55;103037.39;106705;1273;22515;-59
2023/02/08 11:30:23;;;;;;;63.70;26.70;;;;;;;0.93;80.27;103032.42;106783;1273;25307;-59
2023/02/08 11:33:17;;;;;;;63.50;28.30;;;;;;;0.98;80.30;103028.77;106699;1273;22527;-59
2023/02/08 11:35:58;;;;;;;69.70;27.90;;;;;;;1.03;80.33;103021.08;106625;1262;22532;-59